Huvudsida
METAR-TAF:

METAR-TAF

Flygplatser :

Sandnessjøens flygplats. Stokka

Sandnessjøen, Norge

latitud: 65-58N, longitud: 012-28E, höjd: 1 m

Aktuellt väderrapport

Denna rapport gjordes för 5 timmar och 51 minuter sedan, klockan 11:50 UTC
Vind 11 kt från syd/sydväst
Temperatur 10°C
Fuktighet 87%
Tryck 970 hPa
Sikt 10 km eller mer
Få moln på en höjd av 800 ft
Få moln på en höjd av 1500 ft, Cumulonimbus.
Brutna moln på en höjd av 2500 ft
regnskurar

METAR: ENST 221150Z 21011KT 9999 SHRA FEW008 FEW015CB BKN025 10/08 Q0970 RMK WIND 300FT 21010KT

Tid: 19:41 (17:41 UTC)


TAF: saknas

Aktuella väderrapporter och prognoser från 4000 flygplatser (METAR- och TAF-rapporter).

De tillgängliga stationerna syns som gula och röda prickar på kartan.

För musen över prickarna för att se namnen på stationerna.

Klicka sedan för att få väderrapporter och prognoser.

För att ändra kartan: Klicka på de gröna knapparna med ett svart kors på för att zooma in; den gröna knappen med ett streck på för att zooma ut; eller på de gröna pilarna för angränsande kartor.


METAR-TAF: